Time;durP1;ratioP1;P1;durP2;ratioP2;P2;SDS_P1;SDS_P2;PMS_P1;PMS_P2;Temp;Humidity;BMP_temperature;BMP_pressure;BME280_temperature;BME280_humidity;BME280_pressure;Samples;Min_cycle;Max_cycle;Signal;HPM_P1;HPM_P2
2021/10/10 00:00:22;;;;;;;40.17;24.33;;;;;;;5.08;87.69;102998.69;5051064;28;20021;-67
2021/10/10 00:02:48;;;;;;;38.88;22.77;;;;;;;5.07;87.73;102997.84;5051146;28;20021;-67
2021/10/10 00:05:13;;;;;;;33.67;19.45;;;;;;;5.05;88.27;102998.81;5051055;28;20017;-64
2021/10/10 00:07:41;;;;;;;30.37;18.63;;;;;;;5.03;87.74;102995.38;5051075;28;20147;-66
2021/10/10 00:10:08;;;;;;;29.80;19.23;;;;;;;5.02;87.93;102998.94;5051030;28;20071;-69
2021/10/10 00:12:33;;;;;;;35.17;22.27;;;;;;;4.99;87.80;102998.16;5032591;28;20071;-67
2021/10/10 00:14:59;;;;;;;35.13;20.73;;;;;;;4.98;88.19;103000.84;5050956;28;20025;-66
2021/10/10 00:17:25;;;;;;;41.78;24.13;;;;;;;5.02;88.86;102993.63;5050760;28;20032;-62
2021/10/10 00:19:50;;;;;;;39.92;23.00;;;;;;;5.08;89.10;102996.91;5050701;28;20013;-62
2021/10/10 00:22:16;;;;;;;39.83;24.17;;;;;;;5.14;89.37;102998.44;5050366;28;20040;-67
2021/10/10 00:24:41;;;;;;;37.33;22.70;;;;;;;5.13;89.84;102987.03;5050469;28;20331;-63
2021/10/10 00:27:06;;;;;;;29.87;16.43;;;;;;;5.10;89.31;102986.28;5050636;28;20028;-63
2021/10/10 00:29:31;;;;;;;29.83;18.80;;;;;;;5.02;88.70;102983.06;5050671;28;20036;-64
2021/10/10 00:31:59;;;;;;;23.07;15.80;;;;;;;4.95;88.44;102983.34;5050474;28;20028;-71
2021/10/10 00:34:24;;;;;;;20.00;13.63;;;;;;;4.90;88.42;102992.34;5050118;28;20021;-70
2021/10/10 00:36:49;;;;;;;23.00;15.03;;;;;;;4.88;88.61;102983.66;5050356;28;20031;-69
2021/10/10 00:39:15;;;;;;;26.27;18.37;;;;;;;4.85;88.20;102989.06;5050238;28;20074;-69
2021/10/10 00:41:40;;;;;;;23.43;16.47;;;;;;;4.80;88.39;102981.31;5050442;28;20029;-65
2021/10/10 00:44:12;;;;;;;23.73;16.23;;;;;;;4.77;88.08;102984.09;5032375;28;20032;-64
2021/10/10 00:46:38;;;;;;;27.00;18.57;;;;;;;4.75;88.32;102978.84;5050175;28;20354;-67
2021/10/10 00:49:04;;;;;;;24.20;17.88;;;;;;;4.73;88.05;102985.09;5050613;28;20086;-67
2021/10/10 00:51:34;;;;;;;26.60;18.40;;;;;;;4.70;88.23;102983.47;5050313;28;20024;-67
2021/10/10 00:54:01;;;;;;;22.77;15.53;;;;;;;4.67;88.20;102978.28;5050448;28;20040;-63
2021/10/10 00:56:27;;;;;;;28.70;18.17;;;;;;;4.63;88.37;102982.81;5050327;28;20032;-67
2021/10/10 00:58:55;;;;;;;29.90;18.50;;;;;;;4.62;88.41;102978.50;5050434;28;20059;-71
2021/10/10 01:01:20;;;;;;;21.97;15.40;;;;;;;4.63;88.54;102979.34;5050406;28;20033;-66
2021/10/10 01:03:45;;;;;;;23.73;16.27;;;;;;;4.59;88.38;102978.59;5050209;28;20385;-65
2021/10/10 01:06:11;;;;;;;19.13;12.65;;;;;;;4.59;88.21;102978.59;5049728;28;20408;-68
2021/10/10 01:08:38;;;;;;;24.05;16.20;;;;;;;4.59;88.60;102965.38;5050212;28;20918;-66
2021/10/10 01:11:04;;;;;;;25.20;17.53;;;;;;;4.55;88.24;102966.44;5050318;28;20017;-69
2021/10/10 01:13:29;;;;;;;27.27;18.57;;;;;;;4.54;88.49;102969.13;5050110;28;20087;-70
2021/10/10 01:15:55;;;;;;;25.80;16.60;;;;;;;4.51;88.62;102972.75;5049834;28;20464;-69
2021/10/10 01:18:22;;;;;;;22.43;14.57;;;;;;;4.49;88.20;102964.00;5032323;28;20024;-64
2021/10/10 01:20:49;;;;;;;20.63;14.47;;;;;;;4.49;88.50;102967.53;5049822;28;20032;-65
2021/10/10 01:23:14;;;;;;;21.63;14.35;;;;;;;4.52;88.53;102966.56;5050051;28;20036;-68
2021/10/10 01:25:40;;;;;;;26.23;16.38;;;;;;;4.50;88.34;102965.75;5049831;28;20053;-66
2021/10/10 01:28:06;;;;;;;23.23;15.25;;;;;;;4.47;88.69;102961.44;5052684;28;20074;-69
2021/10/10 01:30:33;;;;;;;25.00;16.40;;;;;;;4.44;88.19;102961.56;5054065;28;20032;-69
2021/10/10 01:32:59;;;;;;;25.93;18.33;;;;;;;4.42;88.73;102963.41;5053911;28;20067;-70
2021/10/10 01:35:24;;;;;;;24.02;17.05;;;;;;;4.42;88.50;102967.81;5054175;28;20029;-68
2021/10/10 01:37:50;;;;;;;21.20;15.80;;;;;;;4.41;88.59;102968.75;5053673;28;20017;-71
2021/10/10 01:40:17;;;;;;;19.87;13.57;;;;;;;4.39;88.61;102965.31;5053675;28;20033;-67
2021/10/10 01:42:42;;;;;;;24.50;15.67;;;;;;;4.37;88.54;102965.34;5054193;28;20404;-69
2021/10/10 01:45:21;;;;;;;18.53;13.40;;;;;;;4.36;88.41;102960.13;5053931;28;20033;-66
2021/10/10 01:47:46;;;;;;;18.87;14.33;;;;;;;4.36;88.54;102954.84;5053887;28;20035;-70
2021/10/10 01:50:11;;;;;;;23.00;15.17;;;;;;;4.32;88.40;102949.69;5053912;28;20083;-66
2021/10/10 01:52:46;;;;;;;20.57;14.43;;;;;;;4.29;88.58;102947.19;5035629;28;20512;-70
2021/10/10 01:55:11;;;;;;;21.33;14.97;;;;;;;4.27;88.65;102950.81;5053488;28;20044;-68
2021/10/10 01:57:37;;;;;;;20.23;13.93;;;;;;;4.27;88.54;102946.38;5053475;28;20104;-70
2021/10/10 02:00:05;;;;;;;24.33;17.23;;;;;;;4.26;88.84;102952.56;5053697;28;20021;-69
2021/10/10 02:02:30;;;;;;;17.37;12.33;;;;;;;4.25;88.68;102950.00;5053342;28;20075;-71
2021/10/10 02:04:55;;;;;;;16.20;12.33;;;;;;;4.22;89.00;102943.06;5053537;28;20029;-71
2021/10/10 02:07:21;;;;;;;16.33;13.47;;;;;;;4.21;88.57;102945.75;5053333;28;20037;-70
2021/10/10 02:09:46;;;;;;;18.47;13.23;;;;;;;4.20;88.62;102946.66;5053530;28;20108;-71
2021/10/10 02:12:11;;;;;;;20.07;14.80;;;;;;;4.17;88.73;102947.63;5053327;28;20071;-69
2021/10/10 02:14:36;;;;;;;17.60;13.53;;;;;;;4.17;88.94;102942.38;5053218;28;20029;-69
2021/10/10 02:17:03;;;;;;;17.53;14.63;;;;;;;4.26;89.21;102941.16;5052957;28;20112;-65
2021/10/10 02:19:29;;;;;;;18.37;15.90;;;;;;;4.32;89.34;102946.19;5053208;28;20067;-70
2021/10/10 02:21:55;;;;;;;17.50;15.38;;;;;;;4.33;89.54;102947.91;5052876;28;20029;-71
2021/10/10 02:24:21;;;;;;;;;;;;;;;4.34;89.80;102944.34;5053141;28;20171;-71
2021/10/10 02:26:46;;;;;;;19.37;16.43;;;;;;;4.32;89.94;102943.53;5053000;28;20385;-69
2021/10/10 02:29:11;;;;;;;21.07;16.20;;;;;;;4.26;89.93;102942.00;5052928;28;20029;-70
2021/10/10 02:31:42;;;;;;;20.70;15.43;;;;;;;4.22;89.59;102939.56;5053251;28;20079;-71
2021/10/10 02:34:08;;;;;;;22.27;17.23;;;;;;;4.18;89.62;102944.09;5052920;28;20023;-71
2021/10/10 02:36:33;;;;;;;23.05;17.75;;;;;;;4.17;89.75;102934.44;5052963;28;20029;-69
2021/10/10 02:38:58;;;;;;;24.10;17.90;;;;;;;4.20;90.07;102936.09;5051374;28;20481;-64
2021/10/10 02:41:23;;;;;;;24.87;17.80;;;;;;;4.21;90.10;102940.47;5052691;28;20480;-70
2021/10/10 02:43:49;;;;;;;22.90;17.43;;;;;;;4.22;89.88;102942.19;5052586;28;20029;-68
2021/10/10 02:46:14;;;;;;;31.40;18.00;;;;;;;4.22;90.00;102939.56;5052553;28;20098;-69
2021/10/10 02:48:39;;;;;;;31.13;17.77;;;;;;;4.23;90.22;102936.84;5052785;28;20029;-67
2021/10/10 02:51:05;;;;;;;24.77;17.97;;;;;;;4.25;90.41;102935.00;5052537;28;20036;-70
2021/10/10 02:53:30;;;;;;;35.93;19.03;;;;;;;4.26;90.26;102939.38;5052191;28;20035;-69
2021/10/10 02:55:55;;;;;;;30.37;19.07;;;;;;;4.24;90.45;102933.31;5052481;28;20139;-69
2021/10/10 02:58:21;;;;;;;29.20;19.33;;;;;;;4.23;90.54;102933.34;5052491;28;20021;-71
2021/10/10 03:00:46;;;;;;;21.00;15.57;;;;;;;4.22;90.27;102939.56;5052281;28;20542;-71
2021/10/10 03:03:12;;;;;;;26.93;18.07;;;;;;;4.19;90.28;102924.69;5052566;28;20033;-70
2021/10/10 03:05:37;;;;;;;27.97;17.83;;;;;;;4.16;90.03;102922.16;5052581;28;20375;-71
2021/10/10 03:08:02;;;;;;;25.60;17.80;;;;;;;4.15;89.99;102921.31;5052234;28;20478;-69
2021/10/10 03:10:28;;;;;;;24.58;18.00;;;;;;;4.13;89.98;102922.28;5034392;28;20044;-71
2021/10/10 03:12:53;;;;;;;24.90;17.83;;;;;;;4.09;89.83;102916.25;5052124;28;20020;-70
2021/10/10 03:15:19;;;;;;;21.40;16.30;;;;;;;4.08;90.13;102913.69;5052096;28;20029;-65
2021/10/10 03:17:44;;;;;;;28.05;18.92;;;;;;;4.06;89.83;102919.03;5052292;28;20059;-70
2021/10/10 03:20:10;;;;;;;20.03;15.77;;;;;;;4.06;90.28;102915.50;5051969;28;20064;-69
2021/10/10 03:22:35;;;;;;;26.95;19.23;;;;;;;4.07;89.83;102922.50;5052076;28;20031;-70
2021/10/10 03:25:01;;;;;;;25.93;17.00;;;;;;;4.06;90.06;102920.78;5061818;22;20144;-71
2021/10/10 03:27:26;;;;;;;24.37;18.87;;;;;;;4.04;90.32;102909.44;5051883;28;20116;-69
2021/10/10 03:29:53;;;;;;;25.70;18.57;;;;;;;4.02;90.17;102917.44;5051761;28;20025;-65
2021/10/10 03:32:19;;;;;;;21.67;15.67;;;;;;;4.01;89.92;102912.22;5051491;28;20032;-63
2021/10/10 03:34:44;;;;;;;26.40;19.83;;;;;;;4.03;90.17;102920.91;5051630;28;20029;-61
2021/10/10 03:37:10;;;;;;;26.17;18.30;;;;;;;4.06;90.50;102926.94;5033795;28;20472;-65
2021/10/10 03:39:35;;;;;;;25.00;18.37;;;;;;;4.07;90.50;102927.78;5051348;28;20099;-61
2021/10/10 03:42:00;;;;;;;26.00;17.77;;;;;;;4.06;90.64;102926.94;5051441;28;20033;-67
2021/10/10 03:44:25;;;;;;;27.83;19.13;;;;;;;4.10;90.71;102925.06;5051123;28;20369;-64
2021/10/10 03:46:51;;;;;;;25.80;19.27;;;;;;;4.12;90.57;102916.16;5051377;28;20033;-68
2021/10/10 03:49:17;;;;;;;26.53;19.37;;;;;;;4.13;90.38;102919.66;5051113;28;20028;-62
2021/10/10 03:51:42;;;;;;;23.13;17.08;;;;;;;4.13;90.59;102920.50;5051333;28;20017;-61
2021/10/10 03:56:33;;;;;;;31.13;21.23;;;;;;;4.14;90.30;102911.66;5051081;28;20041;-62
2021/10/10 03:58:58;;;;;;;29.03;20.80;;;;;;;4.15;90.78;102918.69;5051119;28;20155;-68
2021/10/10 04:01:26;;;;;;;23.97;17.60;;;;;;;4.13;90.59;102912.59;5050856;28;20047;-63
2021/10/10 04:03:52;;;;;;;28.20;19.47;;;;;;;4.11;90.34;102914.44;5050704;28;20021;-61
2021/10/10 04:06:17;;;;;;;27.37;18.13;;;;;;;4.08;90.40;102911.91;5051203;28;20031;-62
2021/10/10 04:08:44;;;;;;;25.90;19.23;;;;;;;4.06;90.50;102911.09;5051246;28;20287;-61
2021/10/10 04:11:10;;;;;;;25.97;19.17;;;;;;;4.05;90.10;102917.28;5051087;28;20095;-61
2021/10/10 04:13:35;;;;;;;;;;;;;;;4.09;90.50;102913.63;5051342;28;20369;-63
2021/10/10 04:16:01;;;;;;;29.27;20.17;;;;;;;4.14;90.39;102916.09;5050491;28;20020;-65
2021/10/10 04:18:26;;;;;;;30.80;19.80;;;;;;;4.16;90.74;102924.81;5050449;28;20025;-71
2021/10/10 04:20:51;;;;;;;31.43;19.97;;;;;;;4.18;90.87;102922.97;5050918;28;20017;-62
2021/10/10 04:23:17;;;;;;;35.47;21.13;;;;;;;4.18;90.99;102915.06;5050711;28;20541;-62
2021/10/10 04:25:42;;;;;;;29.37;20.67;;;;;;;4.17;91.05;102915.97;5049528;28;20505;-62
2021/10/10 04:28:07;;;;;;;38.63;21.43;;;;;;;4.17;90.78;102917.75;5050115;28;20025;-61
2021/10/10 04:30:33;;;;;;;30.27;20.75;;;;;;;4.18;90.96;102914.19;5032235;28;20037;-66
2021/10/10 04:32:58;;;;;;;27.67;19.77;;;;;;;4.17;91.03;102915.13;5050009;28;20096;-63
2021/10/10 04:35:23;;;;;;;34.50;21.30;;;;;;;4.17;90.96;102921.25;5049991;28;20087;-67
2021/10/10 04:37:49;;;;;;;28.63;21.10;;;;;;;4.15;90.92;102920.47;5050156;28;20104;-68
2021/10/10 04:40:14;;;;;;;27.80;20.80;;;;;;;4.13;90.88;102920.50;5049714;28;20283;-65
2021/10/10 04:42:40;;;;;;;25.20;19.35;;;;;;;4.10;90.89;102914.50;5050156;28;20067;-67
2021/10/10 04:45:06;;;;;;;24.17;18.30;;;;;;;4.06;90.95;102912.88;5049972;28;20028;-66
2021/10/10 04:47:31;;;;;;;26.42;18.40;;;;;;;4.02;90.66;102906.88;5049805;28;20608;-66
2021/10/10 04:49:58;;;;;;;22.23;15.93;;;;;;;4.04;90.65;102906.81;5049743;28;20024;-67
2021/10/10 04:52:23;;;;;;;30.07;21.57;;;;;;;4.03;90.66;102911.22;5049630;28;20504;-65
2021/10/10 04:54:49;;;;;;;29.00;20.70;;;;;;;4.05;90.74;102905.91;5049666;28;20032;-65
2021/10/10 04:57:15;;;;;;;27.13;20.40;;;;;;;4.06;90.82;102903.19;5049428;28;20024;-69
2021/10/10 04:59:48;;;;;;;31.20;21.77;;;;;;;4.08;90.77;102900.50;5049546;28;20068;-70
2021/10/10 05:02:13;;;;;;;33.93;21.67;;;;;;;4.10;90.80;102894.25;5050726;28;20086;-69
2021/10/10 05:04:38;;;;;;;39.90;23.57;;;;;;;4.13;90.60;102898.53;5053281;28;20033;-68
2021/10/10 05:07:04;;;;;;;33.87;23.50;;;;;;;4.15;90.44;102900.19;5053181;28;20028;-69
2021/10/10 05:09:29;;;;;;;31.13;22.07;;;;;;;4.15;90.56;102904.63;5053139;28;20464;-70
2021/10/10 05:11:54;;;;;;;29.30;22.13;;;;;;;4.15;90.73;102905.47;5052974;28;20021;-68
2021/10/10 05:14:20;;;;;;;28.47;20.83;;;;;;;4.14;90.77;102909.03;5053170;28;20021;-64
2021/10/10 05:16:45;;;;;;;33.20;22.70;;;;;;;4.13;90.64;102902.03;5053093;28;20127;-70
2021/10/10 05:19:10;;;;;;;29.40;20.10;;;;;;;4.18;90.62;102893.06;5052982;28;20052;-70
2021/10/10 05:21:35;;;;;;;29.53;21.73;;;;;;;4.25;90.83;102869.03;5052606;28;20040;-68
2021/10/10 05:24:01;;;;;;;33.57;23.30;;;;;;;4.34;91.03;102856.41;5015602;28;1054136;-69
2021/10/10 05:26:26;;;;;;;29.43;21.07;;;;;;;4.38;90.89;102850.06;5054137;28;20036;-71
2021/10/10 05:28:51;;;;;;;35.43;23.23;;;;;;;4.42;90.93;102849.03;5054193;28;20063;-69
2021/10/10 05:31:17;;;;;;;36.03;23.83;;;;;;;4.46;91.00;102855.88;5054058;28;20059;-70
2021/10/10 05:33:42;;;;;;;35.57;23.30;;;;;;;4.47;91.21;102863.75;5054120;28;20033;-70
2021/10/10 05:36:07;;;;;;;38.63;24.13;;;;;;;4.49;91.30;102866.31;5054044;28;20036;-70
2021/10/10 05:38:34;;;;;;;29.90;20.03;;;;;;;4.52;91.01;102860.94;5053844;28;20033;-70
2021/10/10 05:40:59;;;;;;;;;;;;;;;4.50;91.04;102868.03;5054186;28;20025;-70
2021/10/10 05:43:24;;;;;;;33.63;20.70;;;;;;;4.51;90.77;102869.78;5035634;28;19924;-70
2021/10/10 05:45:50;;;;;;;36.87;21.47;;;;;;;4.61;91.14;102873.75;5053854;28;20087;-68
2021/10/10 05:48:15;;;;;;;36.23;21.30;;;;;;;4.65;91.16;102874.50;5053325;28;20099;-69
2021/10/10 05:50:40;;;;;;;41.83;23.90;;;;;;;4.62;91.07;102870.19;5053643;28;20024;-70
2021/10/10 05:53:07;;;;;;;36.30;22.30;;;;;;;4.60;91.22;102877.31;5053655;28;20040;-66
2021/10/10 05:55:38;;;;;;;32.17;20.20;;;;;;;4.55;91.19;102874.00;5053348;28;20104;-72
2021/10/10 05:58:04;;;;;;;34.77;20.33;;;;;;;4.51;91.21;102869.78;5053409;28;20133;-71
2021/10/10 06:00:30;;;;;;;;;;;;;;;4.49;90.86;102863.69;5053900;28;20421;-67
2021/10/10 06:02:56;;;;;;;30.17;18.70;;;;;;;4.52;90.90;102878.53;5053333;28;20008;-70
2021/10/10 06:05:21;;;;;;;35.30;21.37;;;;;;;4.58;90.70;102883.56;5053179;28;20091;-68
2021/10/10 06:07:47;;;;;;;28.37;17.53;;;;;;;4.58;91.33;102875.66;5053576;28;20099;-68
2021/10/10 06:10:12;;;;;;;31.10;20.03;;;;;;;4.60;91.17;102884.38;5053468;28;20036;-65
2021/10/10 06:12:39;;;;;;;35.40;23.13;;;;;;;4.69;90.73;102883.13;5053230;28;20041;-67
2021/10/10 06:15:06;;;;;;;30.80;17.00;;;;;;;4.69;90.83;102880.50;5053259;28;20045;-69
2021/10/10 06:17:32;;;;;;;31.37;18.87;;;;;;;4.68;91.00;102874.38;5035239;28;20074;-61
2021/10/10 06:19:58;;;;;;;26.88;17.25;;;;;;;4.68;90.83;102877.00;5053175;28;20029;-61
2021/10/10 06:22:23;;;;;;;34.25;22.70;;;;;;;4.71;91.26;102876.03;5052990;28;20455;-61
2021/10/10 06:24:49;;;;;;;38.73;24.33;;;;;;;4.73;90.94;102871.50;5053009;28;20044;-63
2021/10/10 06:27:17;;;;;;;28.90;18.40;;;;;;;4.76;90.70;102880.19;5052704;28;20067;-63
2021/10/10 06:29:43;;;;;;;30.07;18.57;;;;;;;4.80;90.71;102873.84;5053334;28;20036;-62
2021/10/10 06:32:08;;;;;;;26.45;18.17;;;;;;;4.86;90.72;102872.75;5053132;28;20111;-64
2021/10/10 06:34:34;;;;;;;35.60;21.97;;;;;;;4.92;90.97;102874.25;5052728;28;20143;-67
2021/10/10 06:37:00;;;;;;;26.60;17.70;;;;;;;4.99;91.10;102873.09;5052804;28;20607;-63
2021/10/10 06:39:25;;;;;;;27.67;18.27;;;;;;;5.07;90.80;102870.09;5053055;28;20021;-61
2021/10/10 06:41:51;;;;;;;30.50;18.87;;;;;;;5.14;90.57;102866.28;5053016;28;20107;-63
2021/10/10 06:44:17;;;;;;;33.10;20.57;;;;;;;5.22;90.76;102879.16;5052524;28;20427;-66
2021/10/10 06:46:44;;;;;;;32.50;21.77;;;;;;;5.38;90.81;102882.84;5052665;28;20028;-61
2021/10/10 06:49:09;;;;;;;32.80;20.67;;;;;;;5.49;91.13;102890.34;5052792;28;20029;-62
2021/10/10 06:51:35;;;;;;;32.50;21.30;;;;;;;5.58;90.76;102889.03;5052475;28;20357;-65
2021/10/10 06:54:00;;;;;;;32.43;21.93;;;;;;;5.63;90.95;102887.94;5052622;28;20029;-62
2021/10/10 06:56:25;;;;;;;30.67;21.87;;;;;;;5.74;91.00;102899.78;5052632;28;20032;-64
2021/10/10 06:58:51;;;;;;;33.43;22.20;;;;;;;5.86;90.89;102903.66;5052488;28;20024;-65
2021/10/10 07:01:16;;;;;;;30.53;20.17;;;;;;;5.98;91.01;102898.69;5052470;28;20588;-62
2021/10/10 07:03:42;;;;;;;34.03;22.57;;;;;;;6.07;90.73;102897.44;5052452;28;20056;-62
2021/10/10 07:06:08;;;;;;;32.13;21.40;;;;;;;6.22;90.78;102900.28;5052519;28;20047;-63
2021/10/10 07:08:33;;;;;;;30.77;21.83;;;;;;;6.37;90.69;102904.84;5052269;28;20029;-68
2021/10/10 07:10:59;;;;;;;29.50;20.63;;;;;;;6.47;90.58;102897.31;5052288;28;20021;-61
2021/10/10 07:13:24;;;;;;;27.30;20.37;;;;;;;6.60;90.58;102903.72;5052079;28;20737;-65
2021/10/10 07:15:54;;;;;;;27.57;20.00;;;;;;;6.74;90.31;102904.88;5052286;28;20036;-61
2021/10/10 07:18:30;;;;;;;23.17;16.93;;;;;;;6.87;90.46;102905.09;5052029;28;20021;-61
2021/10/10 07:23:44;;;;;;;25.73;18.77;;;;;;;7.19;90.52;102908.78;5052055;28;20419;-61
2021/10/10 07:26:15;;;;;;;26.87;19.70;;;;;;;7.32;90.25;102915.16;5057554;23;20056;-65
2021/10/10 07:28:40;;;;;;;23.23;16.60;;;;;;;7.47;90.17;102907.34;5051867;28;20029;-67
2021/10/10 07:31:05;;;;;;;20.47;14.83;;;;;;;7.66;90.21;102920.50;5051805;28;20124;-64
2021/10/10 07:33:31;;;;;;;21.63;17.20;;;;;;;7.91;90.34;102917.38;5051869;28;20036;-69
2021/10/10 07:35:56;;;;;;;26.27;17.67;;;;;;;8.13;89.95;102925.03;5051722;28;20092;-61
2021/10/10 07:38:21;;;;;;;27.53;20.10;;;;;;;8.26;89.61;102921.69;5051631;28;20025;-62
2021/10/10 07:40:47;;;;;;;23.03;16.77;;;;;;;8.39;89.39;102929.84;5051718;28;20200;-61
2021/10/10 07:43:13;;;;;;;24.00;17.10;;;;;;;8.51;89.17;102925.66;5051661;28;20341;-62
2021/10/10 07:45:42;;;;;;;24.80;17.63;;;;;;;8.64;89.06;102929.34;5051391;28;20031;-61
2021/10/10 07:48:07;;;;;;;25.70;18.13;;;;;;;8.80;87.88;102932.00;5051467;28;20710;-65
2021/10/10 07:50:33;;;;;;;26.60;18.63;;;;;;;8.85;86.37;102935.25;5051279;28;20101;-62
2021/10/10 07:52:58;;;;;;;22.07;17.10;;;;;;;8.86;86.66;102939.59;5051399;28;20099;-61
2021/10/10 07:55:24;;;;;;;24.27;18.73;;;;;;;8.86;85.85;102939.59;5051152;28;20040;-61
2021/10/10 07:57:49;;;;;;;25.13;17.65;;;;;;;8.85;85.29;102939.69;5051149;28;20024;-63
2021/10/10 08:00:15;;;;;;;19.07;16.33;;;;;;;8.80;84.89;102932.00;5051161;28;20063;-63
2021/10/10 08:02:51;;;;;;;21.38;15.98;;;;;;;8.77;85.32;102935.69;5033379;28;20112;-62
2021/10/10 08:05:17;;;;;;;21.07;16.83;;;;;;;8.83;84.60;102939.78;5033145;28;20243;-62
2021/10/10 08:07:42;;;;;;;22.70;16.08;;;;;;;8.84;84.26;102940.63;5051070;28;20343;-62
2021/10/10 08:10:08;;;;;;;21.73;17.85;;;;;;;8.82;85.05;102937.22;5050974;28;20029;-61
2021/10/10 08:12:33;;;;;;;18.10;15.23;;;;;;;8.92;86.09;102938.41;5051035;28;20064;-63
2021/10/10 08:14:58;;;;;;;23.97;18.83;;;;;;;9.10;85.99;102945.31;5050779;28;20464;-66
2021/10/10 08:17:24;;;;;;;24.10;19.07;;;;;;;9.21;85.38;102939.34;5033260;28;20021;-62
2021/10/10 08:19:49;;;;;;;19.20;15.97;;;;;;;9.36;85.15;102948.19;5050839;28;20025;-62
2021/10/10 08:22:16;;;;;;;23.03;19.23;;;;;;;9.40;84.93;102947.09;5050824;28;20040;-60
2021/10/10 08:24:41;;;;;;;23.52;18.52;;;;;;;9.58;85.54;102946.91;5050713;28;20132;-61
2021/10/10 08:27:08;;;;;;;22.97;19.77;;;;;;;9.60;84.96;102945.88;5050832;28;20522;-61
2021/10/10 08:29:33;;;;;;;20.95;17.20;;;;;;;9.55;85.02;102947.13;5050738;28;20029;-61
2021/10/10 08:31:59;;;;;;;23.10;16.47;;;;;;;9.45;85.39;102941.47;5050552;28;20029;-65
2021/10/10 08:34:24;;;;;;;26.60;20.53;;;;;;;9.34;85.25;102941.25;5050697;28;20476;-60
2021/10/10 08:36:49;;;;;;;28.93;23.23;;;;;;;9.20;84.97;102942.94;5050633;28;20380;-62
2021/10/10 08:39:22;;;;;;;29.70;23.03;;;;;;;9.06;85.63;102940.25;5050720;28;20040;-62
2021/10/10 08:41:49;;;;;;;38.58;25.65;;;;;;;8.93;86.29;102933.00;5050197;28;20039;-65
2021/10/10 08:44:18;;;;;;;36.88;25.55;;;;;;;8.83;86.97;102928.31;5050558;28;20078;-62
2021/10/10 08:46:44;;;;;;;27.58;20.05;;;;;;;8.80;87.22;102932.00;5050324;28;20032;-62
2021/10/10 08:49:11;;;;;;;39.58;27.73;;;;;;;8.87;87.79;102932.50;5050395;28;20020;-66
2021/10/10 08:51:38;;;;;;;36.00;25.15;;;;;;;9.08;88.48;102925.91;5032226;28;20400;-62
2021/10/10 08:54:04;;;;;;;36.17;24.48;;;;;;;9.46;88.88;102929.88;5050063;28;20593;-63
2021/10/10 08:56:30;;;;;;;37.10;24.60;;;;;;;9.86;88.82;102927.44;5050188;28;20021;-64
2021/10/10 08:58:56;;;;;;;37.83;25.70;;;;;;;10.26;87.70;102930.25;5050263;28;20068;-64
2021/10/10 09:01:33;;;;;;;34.90;25.85;;;;;;;10.67;85.15;102935.69;5050214;28;20110;-64
2021/10/10 09:03:58;;;;;;;34.95;24.95;;;;;;;11.04;83.87;102935.91;5032108;28;20029;-64
2021/10/10 09:06:24;;;;;;;36.57;27.00;;;;;;;11.24;82.52;102930.09;5050624;28;20477;-63
2021/10/10 09:08:53;;;;;;;37.97;26.85;;;;;;;11.49;81.34;102938.19;5050402;28;20591;-64
2021/10/10 09:11:19;;;;;;;42.67;28.60;;;;;;;11.78;80.27;102946.88;5050302;28;20048;-65
2021/10/10 09:13:44;;;;;;;39.57;29.10;;;;;;;12.06;79.56;102945.78;5050374;28;20064;-65
2021/10/10 09:16:11;;;;;;;33.57;24.80;;;;;;;12.43;78.19;102947.63;5032517;28;20018;-72
2021/10/10 09:18:43;;;;;;;38.15;26.08;;;;;;;12.70;76.73;102951.88;5015886;28;20286;-62
2021/10/10 09:21:18;;;;;;;41.10;29.08;;;;;;;12.83;76.93;102949.16;5050201;28;20070;-65
2021/10/10 09:23:51;;;;;;;38.95;25.50;;;;;;;13.03;75.55;102951.19;5050249;28;20083;-66
2021/10/10 09:26:17;;;;;;;38.50;26.80;;;;;;;13.26;75.54;102957.47;5049905;28;20037;-67
2021/10/10 09:28:44;;;;;;;41.28;28.48;;;;;;;13.37;74.40;102963.84;5050203;28;20028;-68
2021/10/10 09:31:10;;;;;;;44.20;30.98;;;;;;;13.20;76.25;102967.81;5050111;28;20479;-66
2021/10/10 09:33:47;;;;;;;48.60;31.73;;;;;;;13.12;76.93;102958.53;5050331;28;20017;-64
2021/10/10 09:36:18;;;;;;;43.72;31.42;;;;;;;13.05;76.09;102948.41;5050269;28;20029;-64
2021/10/10 09:39:14;;;;;;;44.17;29.40;;;;;;;13.00;75.97;102959.47;5050083;28;20033;-65
2021/10/10 09:41:53;;;;;;;49.00;31.05;;;;;;;13.02;75.40;102964.69;5050030;28;20090;-63
2021/10/10 09:44:29;;;;;;;48.67;30.05;;;;;;;13.00;75.66;102963.94;5032167;28;20075;-63
2021/10/10 09:46:59;;;;;;;44.88;29.58;;;;;;;13.16;75.61;102959.16;5049747;28;20465;-68
2021/10/10 09:49:30;;;;;;;44.78;28.20;;;;;;;13.31;75.98;102970.50;5053117;28;20021;-65
2021/10/10 09:52:10;;;;;;;44.67;29.92;;;;;;;13.50;75.23;102967.31;5053576;28;20013;-63
2021/10/10 09:54:48;;;;;;;47.08;32.13;;;;;;;13.54;75.91;102967.91;5053394;28;20032;-66
2021/10/10 09:57:13;;;;;;;45.20;28.92;;;;;;;13.69;76.28;102968.53;5053602;28;20108;-63
2021/10/10 09:59:39;;;;;;;46.00;30.00;;;;;;;13.85;75.92;102961.00;5053811;28;20110;-67
2021/10/10 10:02:04;;;;;;;47.92;30.45;;;;;;;13.96;74.50;102965.53;5053318;28;20060;-72
2021/10/10 10:04:50;;;;;;;50.90;33.95;;;;;;;13.66;75.67;102966.97;5053604;28;20028;-68
2021/10/10 10:07:21;;;;;;;48.10;31.58;;;;;;;13.49;75.10;102967.41;5053148;28;20027;-65
2021/10/10 10:09:52;;;;;;;48.53;31.65;;;;;;;13.55;75.50;102967.81;5053168;28;20025;-67
2021/10/10 10:12:19;;;;;;;45.25;30.73;;;;;;;13.76;75.03;102961.72;5053420;28;20545;-68
2021/10/10 10:14:49;;;;;;;43.88;28.92;;;;;;;13.76;75.21;102961.72;5053400;28;20025;-67
2021/10/10 10:17:17;;;;;;;42.42;29.48;;;;;;;13.98;72.51;102957.34;5053164;28;20480;-63
2021/10/10 10:19:42;;;;;;;44.92;30.45;;;;;;;13.95;71.79;102959.28;5053197;28;20365;-68
2021/10/10 10:22:09;;;;;;;37.22;25.70;;;;;;;14.10;73.03;102964.41;5053066;28;20036;-68
2021/10/10 10:24:39;;;;;;;43.55;28.67;;;;;;;14.23;71.84;102969.63;5052965;28;20681;-70
2021/10/10 10:27:05;;;;;;;43.85;29.88;;;;;;;14.28;73.74;102959.38;5053189;28;20037;-64
2021/10/10 10:29:32;;;;;;;42.57;28.70;;;;;;;14.28;72.98;102965.59;5053193;28;20397;-65
2021/10/10 10:31:59;;;;;;;52.78;32.97;;;;;;;14.38;71.70;102964.84;5052977;28;20326;-68
2021/10/10 10:34:28;;;;;;;45.88;32.22;;;;;;;14.38;72.36;102970.22;5052541;28;20342;-62
2021/10/10 10:37:06;;;;;;;50.55;32.67;;;;;;;14.48;72.13;102971.16;5034931;28;20021;-70
2021/10/10 10:39:39;;;;;;;47.50;29.30;;;;;;;14.51;71.07;102959.34;5052963;28;20021;-65
2021/10/10 10:42:06;;;;;;;42.50;26.75;;;;;;;14.47;69.94;102952.53;5052644;28;20033;-63
2021/10/10 10:44:40;;;;;;;39.80;26.13;;;;;;;14.51;69.66;102953.97;5052810;28;20487;-70
2021/10/10 10:47:17;;;;;;;45.42;28.73;;;;;;;14.57;70.11;102953.47;5052988;28;20091;-68
2021/10/10 10:50:02;;;;;;;46.92;29.52;;;;;;;14.65;70.74;102955.56;5052620;28;20468;-65
2021/10/10 10:52:33;;;;;;;40.17;28.10;;;;;;;14.67;70.64;102950.91;5052630;28;20033;-72
2021/10/10 10:55:20;;;;;;;37.53;25.27;;;;;;;14.67;68.48;102945.53;5052390;28;20396;-68
2021/10/10 10:58:15;;;;;;;33.22;23.27;;;;;;;14.81;67.55;102947.09;5052773;28;20021;-72
2021/10/10 11:00:47;;;;;;;31.25;22.02;;;;;;;14.94;67.04;102937.00;5047354;28;20069;-64
2021/10/10 11:03:25;;;;;;;33.88;23.90;;;;;;;15.14;66.92;102948.78;5052336;28;20112;-64
2021/10/10 11:05:50;;;;;;;32.42;23.45;;;;;;;15.33;65.15;102936.47;5052233;28;20025;-64
2021/10/10 11:08:16;;;;;;;23.20;18.90;;;;;;;15.48;62.43;102937.78;5052314;28;20036;-67
2021/10/10 11:11:04;;;;;;;26.60;18.50;;;;;;;15.77;62.96;102950.53;5052267;28;20083;-66
2021/10/10 11:13:35;;;;;;;31.38;22.77;;;;;;;15.96;62.56;102946.28;5052259;28;20024;-67
2021/10/10 11:16:04;;;;;;;27.90;21.25;;;;;;;16.18;60.31;102948.75;5051852;28;20033;-70
2021/10/10 11:18:30;;;;;;;28.08;21.77;;;;;;;16.33;60.08;102943.81;5051881;28;20116;-64
2021/10/10 11:20:58;;;;;;;33.22;22.75;;;;;;;16.21;61.14;102944.94;5051663;28;20419;-63